Time;durP1;ratioP1;P1;durP2;ratioP2;P2;SDS_P1;SDS_P2;PMS_P1;PMS_P2;Temp;Humidity;BMP_temperature;BMP_pressure;BME280_temperature;BME280_humidity;BME280_pressure;Samples;Min_cycle;Max_cycle;Signal;HPM_P1;HPM_P2
2021/08/01 00:02:16;;;;;;;8.83;8.03;;;16.50;99.90;;;;;;5025603;28;20672;-40
2021/08/01 00:04:42;;;;;;;9.50;8.63;;;16.50;99.90;;;;;;5032315;28;20423;-40
2021/08/01 00:07:08;;;;;;;9.50;7.80;;;16.50;99.90;;;;;;5033251;28;20186;-42
2021/08/01 00:09:34;;;;;;;9.37;8.50;;;16.50;99.90;;;;;;5026211;28;20202;-41
2021/08/01 00:11:59;;;;;;;9.10;8.30;;;16.50;99.90;;;;;;5027373;28;20451;-41
2021/08/01 00:14:25;;;;;;;9.60;8.70;;;16.40;99.90;;;;;;5028775;28;20209;-42
2021/08/01 00:16:51;;;;;;;11.13;9.40;;;16.40;99.90;;;;;;5029245;28;20198;-38
2021/08/01 00:19:16;;;;;;;11.23;9.37;;;16.40;99.90;;;;;;5026295;28;20214;-39
2021/08/01 00:21:42;;;;;;;9.80;8.50;;;16.40;99.90;;;;;;5033344;28;20255;-38
2021/08/01 00:24:07;;;;;;;10.37;9.40;;;16.40;99.90;;;;;;5025893;28;20190;-41
2021/08/01 00:26:33;;;;;;;11.27;10.27;;;16.40;99.90;;;;;;5024851;28;20274;-39
2021/08/01 00:28:59;;;;;;;9.87;8.97;;;16.40;99.90;;;;;;5037997;28;20231;-41
2021/08/01 00:31:24;;;;;;;9.90;9.10;;;16.40;99.90;;;;;;5044186;28;20220;-40
2021/08/01 00:33:50;;;;;;;10.70;9.60;;;16.50;99.90;;;;;;5026116;28;20198;-39
2021/08/01 00:36:16;;;;;;;11.70;10.50;;;16.50;99.90;;;;;;5029315;28;20202;-41
2021/08/01 00:38:41;;;;;;;10.07;9.17;;;16.50;99.90;;;;;;5025315;28;20222;-40
2021/08/01 00:41:07;;;;;;;9.73;8.83;;;16.50;99.90;;;;;;5024885;28;20202;-41
2021/08/01 00:43:33;;;;;;;10.20;9.30;;;16.50;99.90;;;;;;5035956;28;20182;-39
2021/08/01 00:45:59;;;;;;;11.13;10.03;;;16.50;99.90;;;;;;5037429;28;20252;-41
2021/08/01 00:48:26;;;;;;;10.57;9.67;;;16.50;99.90;;;;;;5025425;28;20178;-39
2021/08/01 00:50:52;;;;;;;11.23;10.13;;;16.50;99.90;;;;;;5037442;28;20830;-39
2021/08/01 00:53:18;;;;;;;10.57;9.53;;;16.50;99.90;;;;;;5024153;28;20421;-44
2021/08/01 00:55:44;;;;;;;10.60;9.57;;;16.40;99.90;;;;;;5025548;28;20900;-39
2021/08/01 00:58:10;;;;;;;9.80;9.00;;;16.40;99.90;;;;;;5032434;28;20527;-41
2021/08/01 01:03:46;;;;;;;10.17;9.27;;;16.40;99.90;;;;;;5025378;28;20440;-41
2021/08/01 01:06:23;;;;;;;9.50;8.60;;;16.40;99.90;;;;;;5032611;28;20421;-39
2021/08/01 01:09:08;;;;;;;9.73;8.93;;;16.40;99.90;;;;;;5024937;28;20823;-39
2021/08/01 01:11:41;;;;;;;11.43;10.30;;;16.40;99.90;;;;;;5033934;28;20535;-39
2021/08/01 01:14:12;;;;;;;9.63;8.80;;;16.40;99.90;;;;;;5035283;28;20444;-42
2021/08/01 01:16:44;;;;;;;10.60;9.60;;;16.30;99.90;;;;;;5042129;28;21072;-39
2021/08/01 01:19:19;;;;;;;10.83;9.93;;;16.30;99.90;;;;;;5027425;28;21391;-41
2021/08/01 01:21:59;;;;;;;10.10;9.10;;;16.20;99.90;;;;;;5030103;28;20421;-42
2021/08/01 01:24:29;;;;;;;11.03;9.97;;;16.20;99.90;;;;;;5025119;28;20864;-39
2021/08/01 01:27:15;;;;;;;11.17;10.03;;;16.20;99.90;;;;;;5025505;28;20428;-41
2021/08/01 01:29:49;;;;;;;12.20;11.00;;;16.20;99.90;;;;;;5040332;28;20889;-40
2021/08/01 01:32:30;;;;;;;11.00;9.90;;;16.20;99.90;;;;;;5036845;28;20507;-39
2021/08/01 01:35:11;;;;;;;11.93;10.73;;;16.20;99.90;;;;;;5026614;28;20466;-41
2021/08/01 01:37:38;;;;;;;11.67;10.47;;;16.30;99.90;;;;;;5025214;28;20861;-40
2021/08/01 01:40:07;;;;;;;11.77;10.70;;;16.20;99.90;;;;;;5025124;28;20479;-41
2021/08/01 01:42:34;;;;;;;11.50;10.40;;;16.10;99.90;;;;;;5024999;28;20452;-41
2021/08/01 01:45:01;;;;;;;11.73;10.63;;;16.10;99.90;;;;;;5034160;28;20429;-40
2021/08/01 01:47:28;;;;;;;11.47;10.27;;;16.20;99.90;;;;;;5030076;28;20456;-44
2021/08/01 01:49:57;;;;;;;11.13;10.03;;;16.20;99.90;;;;;;5025012;28;20429;-41
2021/08/01 01:52:25;;;;;;;12.60;10.40;;;16.10;99.90;;;;;;5025441;28;20413;-40
2021/08/01 01:54:51;;;;;;;11.00;10.00;;;16.20;99.90;;;;;;5041701;28;20503;-41
2021/08/01 01:57:17;;;;;;;11.73;10.67;;;16.10;99.90;;;;;;5038526;28;20777;-44
2021/08/01 01:59:43;;;;;;;12.53;11.33;;;16.10;99.90;;;;;;5027469;28;20468;-40
2021/08/01 02:02:09;;;;;;;12.30;11.20;;;16.20;99.90;;;;;;5032323;28;20971;-40
2021/08/01 02:04:36;;;;;;;17.70;11.83;;;16.20;99.90;;;;;;5033580;28;20436;-41
2021/08/01 02:07:04;;;;;;;12.00;10.90;;;16.20;99.90;;;;;;5034903;28;20931;-42
2021/08/01 02:09:50;;;;;;;12.90;11.60;;;16.20;99.90;;;;;;5028633;28;20448;-40
2021/08/01 02:12:35;;;;;;;12.83;11.53;;;16.20;99.90;;;;;;5028756;28;20908;-44
2021/08/01 02:15:11;;;;;;;14.10;12.60;;;16.20;99.90;;;;;;5040346;28;20427;-41
2021/08/01 02:17:53;;;;;;;12.60;11.30;;;16.20;99.90;;;;;;5031552;28;20500;-40
2021/08/01 02:20:23;;;;;;;13.43;11.30;;;16.30;99.90;;;;;;5029040;28;20462;-44
2021/08/01 02:22:51;;;;;;;12.30;11.10;;;16.20;99.90;;;;;;5028704;28;20503;-41
2021/08/01 02:25:19;;;;;;;13.50;12.20;;;16.30;99.90;;;;;;5027682;28;20436;-40
2021/08/01 02:27:45;;;;;;;14.17;11.20;;;16.30;99.90;;;;;;5029102;28;20444;-46
2021/08/01 02:30:13;;;;;;;13.10;11.90;;;16.30;99.90;;;;;;5039177;28;20440;-43
2021/08/01 02:32:39;;;;;;;13.73;12.17;;;16.30;99.90;;;;;;5030574;28;20804;-45
2021/08/01 02:35:07;;;;;;;12.87;11.77;;;16.30;99.90;;;;;;5027724;28;20421;-47
2021/08/01 02:37:35;;;;;;;12.83;11.60;;;16.30;99.90;;;;;;5037957;28;20429;-40
2021/08/01 02:40:02;;;;;;;11.80;10.60;;;16.30;99.90;;;;;;5026538;28;20465;-39
2021/08/01 02:42:29;;;;;;;14.50;13.10;;;16.20;99.90;;;;;;5027281;28;20797;-38
2021/08/01 02:44:57;;;;;;;13.60;11.70;;;16.20;99.90;;;;;;5035700;28;20486;-38
2021/08/01 02:47:24;;;;;;;14.07;12.37;;;16.20;99.90;;;;;;5037020;28;20483;-39
2021/08/01 02:49:54;;;;;;;12.77;11.57;;;16.20;99.90;;;;;;5027768;28;20441;-38
2021/08/01 02:52:24;;;;;;;12.70;11.50;;;16.20;99.90;;;;;;5033460;28;20469;-38
2021/08/01 02:54:50;;;;;;;13.20;11.20;;;16.30;99.90;;;;;;5027484;28;20440;-38
2021/08/01 02:57:17;;;;;;;13.27;11.10;;;16.30;99.90;;;;;;5026551;28;20440;-39
2021/08/01 02:59:44;;;;;;;13.73;11.90;;;16.20;99.90;;;;;;5036541;28;20883;-39
2021/08/01 03:02:11;;;;;;;13.50;12.13;;;16.20;99.90;;;;;;5042125;28;20845;-39
2021/08/01 03:04:42;;;;;;;14.20;12.70;;;16.20;99.90;;;;;;5028016;28;20413;-38
2021/08/01 03:07:10;;;;;;;14.10;12.70;;;16.10;99.90;;;;;;5027442;28;20717;-39
2021/08/01 03:09:36;;;;;;;13.47;12.07;;;16.10;99.90;;;;;;5027388;28;20448;-38
2021/08/01 03:12:13;;;;;;;12.73;11.43;;;16.10;99.90;;;;;;5027394;28;20433;-40
2021/08/01 03:14:39;;;;;;;12.80;11.50;;;16.10;99.90;;;;;;5032569;28;20778;-38
2021/08/01 03:17:05;;;;;;;14.97;12.63;;;16.10;99.90;;;;;;5037566;28;20886;-39
2021/08/01 03:19:33;;;;;;;12.80;11.50;;;16.10;99.90;;;;;;5027552;28;20572;-38
2021/08/01 03:21:58;;;;;;;13.77;12.37;;;16.10;99.90;;;;;;5037024;28;20478;-39
2021/08/01 03:24:24;;;;;;;13.60;12.10;;;16.10;99.90;;;;;;5025940;28;20420;-38
2021/08/01 03:26:50;;;;;;;12.80;11.60;;;16.10;99.90;;;;;;5026966;28;20281;-40
2021/08/01 03:29:15;;;;;;;14.03;12.07;;;16.10;99.90;;;;;;5032427;28;20190;-38
2021/08/01 03:31:41;;;;;;;13.17;11.87;;;16.10;99.90;;;;;;5036448;28;20632;-39
2021/08/01 03:34:07;;;;;;;14.53;12.60;;;16.10;99.90;;;;;;5026686;28;20195;-38
2021/08/01 03:36:33;;;;;;;12.13;11.03;;;16.10;99.90;;;;;;5032708;28;20193;-39
2021/08/01 03:38:58;;;;;;;14.17;12.67;;;16.10;99.90;;;;;;5026362;28;20293;-40
2021/08/01 03:41:24;;;;;;;15.00;13.50;;;16.10;99.90;;;;;;5027024;28;20995;-39
2021/08/01 03:43:49;;;;;;;13.43;12.13;;;16.10;99.90;;;;;;5031678;28;20722;-38
2021/08/01 03:46:15;;;;;;;13.70;12.13;;;16.00;99.90;;;;;;5044030;28;20192;-39
2021/08/01 03:48:41;;;;;;;14.57;12.57;;;16.10;99.90;;;;;;5036398;28;20218;-39
2021/08/01 03:51:06;;;;;;;14.60;12.93;;;16.00;99.90;;;;;;5028377;28;20229;-39
2021/08/01 03:53:32;;;;;;;14.80;13.30;;;16.00;99.90;;;;;;5026749;28;20796;-39
2021/08/01 03:56:02;;;;;;;13.37;12.00;;;16.10;99.90;;;;;;5026374;28;20187;-38
2021/08/01 03:58:28;;;;;;;17.07;13.90;;;16.10;99.90;;;;;;5027848;28;20217;-39
2021/08/01 04:00:53;;;;;;;13.90;12.50;;;16.10;99.90;;;;;;5039372;28;20429;-39
2021/08/01 04:03:19;;;;;;;14.40;12.50;;;16.00;99.90;;;;;;5031037;28;20605;-39
2021/08/01 04:05:45;;;;;;;14.43;12.93;;;16.00;99.90;;;;;;5041299;28;20281;-38
2021/08/01 04:08:10;;;;;;;14.57;13.17;;;16.10;99.90;;;;;;5037837;28;20297;-38
2021/08/01 04:10:36;;;;;;;13.97;12.57;;;16.10;99.90;;;;;;5026412;28;20551;-39
2021/08/01 04:13:02;;;;;;;13.13;11.73;;;16.00;99.90;;;;;;5027742;28;20252;-42
2021/08/01 04:15:27;;;;;;;14.00;12.70;;;16.10;99.90;;;;;;5033513;28;20186;-38
2021/08/01 04:17:53;;;;;;;13.47;12.17;;;16.10;99.90;;;;;;5034378;28;20433;-38
2021/08/01 04:20:19;;;;;;;13.33;11.93;;;16.10;99.90;;;;;;5026027;28;20241;-38
2021/08/01 04:22:44;;;;;;;14.63;13.10;;;16.10;99.90;;;;;;5033898;28;20190;-38
2021/08/01 04:25:10;;;;;;;14.13;12.73;;;16.20;99.90;;;;;;5025739;28;20191;-38
2021/08/01 04:27:36;;;;;;;13.97;12.47;;;16.20;99.90;;;;;;5024945;28;20191;-42
2021/08/01 04:30:03;;;;;;;15.03;13.43;;;16.20;99.90;;;;;;5034161;28;20198;-39
2021/08/01 04:32:29;;;;;;;15.03;11.87;;;16.10;99.90;;;;;;5040355;28;20436;-39
2021/08/01 04:34:55;;;;;;;14.17;12.77;;;16.10;99.90;;;;;;5031380;28;20524;-38
2021/08/01 04:37:20;;;;;;;16.80;13.70;;;16.10;99.90;;;;;;5029516;28;20256;-39
2021/08/01 04:39:46;;;;;;;13.20;11.90;;;16.20;99.90;;;;;;5025756;28;20264;-39
2021/08/01 04:42:11;;;;;;;14.30;12.27;;;16.20;99.90;;;;;;5024491;28;20190;-39
2021/08/01 04:44:37;;;;;;;13.13;11.67;;;16.20;99.90;;;;;;5029182;28;20213;-38
2021/08/01 04:47:03;;;;;;;13.40;12.03;;;16.20;99.90;;;;;;5039787;28;20213;-39
2021/08/01 04:49:28;;;;;;;14.20;12.80;;;16.20;99.90;;;;;;5025729;28;20417;-38
2021/08/01 04:51:54;;;;;;;13.37;11.93;;;16.30;99.90;;;;;;5031472;28;20291;-39
2021/08/01 04:54:20;;;;;;;12.80;11.50;;;16.30;99.90;;;;;;5032391;28;20210;-39
2021/08/01 04:56:45;;;;;;;13.53;12.17;;;16.30;99.90;;;;;;5025741;28;20202;-39
2021/08/01 04:59:14;;;;;;;13.60;12.30;;;16.30;99.90;;;;;;5027194;28;20210;-40
2021/08/01 05:01:40;;;;;;;13.50;12.03;;;16.30;99.90;;;;;;5029414;28;20270;-38
2021/08/01 05:04:05;;;;;;;13.70;11.93;;;16.30;99.90;;;;;;5029392;28;20421;-39
2021/08/01 05:06:31;;;;;;;12.73;11.47;;;16.30;99.90;;;;;;5045769;28;20188;-39
2021/08/01 05:08:56;;;;;;;14.73;12.70;;;16.30;99.90;;;;;;5030520;28;20569;-38
2021/08/01 05:11:22;;;;;;;14.23;12.83;;;16.30;99.90;;;;;;5025677;28;20194;-39
2021/08/01 05:13:48;;;;;;;14.40;13.00;;;16.30;99.90;;;;;;5023954;28;20190;-38
2021/08/01 05:16:18;;;;;;;14.97;13.40;;;16.30;99.90;;;;;;5039505;28;20195;-38
2021/08/01 05:18:44;;;;;;;15.27;13.77;;;16.40;99.90;;;;;;5042755;28;20173;-39
2021/08/01 05:21:11;;;;;;;14.73;13.20;;;16.40;99.90;;;;;;5024049;28;20428;-39
2021/08/01 05:23:36;;;;;;;14.00;12.50;;;16.40;99.90;;;;;;5029062;28;20421;-38
2021/08/01 05:26:02;;;;;;;15.30;12.83;;;16.30;99.90;;;;;;5025608;28;20421;-40
2021/08/01 05:28:28;;;;;;;14.60;12.97;;;16.40;99.90;;;;;;5024311;28;20201;-38
2021/08/01 05:30:54;;;;;;;14.63;13.13;;;16.30;99.90;;;;;;5038879;28;20443;-38
2021/08/01 05:33:19;;;;;;;14.50;13.03;;;16.40;99.90;;;;;;5036294;28;20178;-37
2021/08/01 05:35:45;;;;;;;16.27;12.50;;;16.40;99.90;;;;;;5024267;28;20197;-39
2021/08/01 05:38:10;;;;;;;14.90;12.40;;;16.30;99.90;;;;;;5040105;28;20215;-39
2021/08/01 05:40:36;;;;;;;13.17;11.77;;;16.30;99.90;;;;;;5029278;28;20699;-39
2021/08/01 05:43:02;;;;;;;15.30;12.37;;;16.40;99.90;;;;;;5028627;28;20192;-39
2021/08/01 05:45:29;;;;;;;19.70;13.00;;;16.40;99.90;;;;;;5029223;28;20183;-38
2021/08/01 05:47:55;;;;;;;13.60;12.10;;;16.30;99.90;;;;;;5046244;28;20420;-39
2021/08/01 05:50:21;;;;;;;15.63;12.73;;;16.30;99.90;;;;;;5044519;28;20447;-38
2021/08/01 05:52:47;;;;;;;13.10;11.80;;;16.30;99.90;;;;;;5035962;28;20439;-38
2021/08/01 05:55:13;;;;;;;16.57;12.40;;;16.40;99.90;;;;;;5029239;28;20860;-38
2021/08/01 05:57:39;;;;;;;12.53;11.20;;;16.40;99.90;;;;;;5034776;28;20512;-39
2021/08/01 06:00:05;;;;;;;14.20;11.50;;;16.40;99.90;;;;;;5036305;28;20221;-38
2021/08/01 06:02:31;;;;;;;12.00;10.03;;;16.30;99.90;;;;;;5038024;28;20196;-38
2021/08/01 06:04:57;;;;;;;12.73;11.43;;;16.40;99.90;;;;;;5040259;28;20417;-38
2021/08/01 06:07:23;;;;;;;12.77;11.07;;;16.40;99.90;;;;;;5030560;28;20189;-38
2021/08/01 06:09:49;;;;;;;11.80;10.60;;;16.50;99.90;;;;;;5028660;28;20212;-39
2021/08/01 06:12:15;;;;;;;13.50;11.90;;;16.50;99.90;;;;;;5028128;28;20425;-42
2021/08/01 06:14:41;;;;;;;12.60;10.83;;;16.60;99.90;;;;;;5034377;28;20559;-40
2021/08/01 06:17:06;;;;;;;15.50;11.70;;;16.60;99.90;;;;;;5043442;28;20429;-39
2021/08/01 06:19:32;;;;;;;12.40;11.03;;;16.80;99.90;;;;;;5035902;28;20207;-40
2021/08/01 06:21:57;;;;;;;14.10;12.47;;;16.80;99.90;;;;;;5029362;28;20190;-39
2021/08/01 06:24:24;;;;;;;12.70;11.43;;;16.90;99.90;;;;;;5040199;28;20328;-38
2021/08/01 06:26:49;;;;;;;13.90;12.23;;;17.00;99.90;;;;;;5026520;28;20521;-40
2021/08/01 06:29:16;;;;;;;16.50;12.63;;;17.00;99.90;;;;;;5029134;28;20435;-42
2021/08/01 06:31:43;;;;;;;15.87;14.30;;;17.10;99.90;;;;;;5029971;28;20193;-38
2021/08/01 06:34:08;;;;;;;14.77;12.73;;;17.20;99.90;;;;;;5037012;28;20421;-38
2021/08/01 06:36:34;;;;;;;19.57;14.77;;;17.30;99.90;;;;;;5028199;28;20429;-39
2021/08/01 06:39:00;;;;;;;15.77;13.80;;;17.50;99.90;;;;;;5035823;28;20210;-38
2021/08/01 06:41:25;;;;;;;14.50;13.07;;;17.70;99.90;;;;;;5027691;28;20668;-38
2021/08/01 06:43:51;;;;;;;15.93;13.70;;;17.90;99.90;;;;;;5027535;28;20198;-38
2021/08/01 06:46:17;;;;;;;17.77;15.77;;;17.90;99.90;;;;;;5036015;28;20193;-41
2021/08/01 06:48:43;;;;;;;21.27;17.20;;;17.90;99.90;;;;;;5043622;28;20193;-38
2021/08/01 06:51:08;;;;;;;20.23;16.87;;;17.90;99.90;;;;;;5032934;28;20194;-38
2021/08/01 06:53:34;;;;;;;18.83;16.80;;;17.90;99.90;;;;;;5031376;28;20191;-40
2021/08/01 06:56:00;;;;;;;17.10;14.00;;;18.10;99.90;;;;;;5027286;28;20259;-38
2021/08/01 06:58:26;;;;;;;12.77;11.50;;;18.30;99.90;;;;;;5027520;28;20187;-38
2021/08/01 07:00:53;;;;;;;14.47;12.50;;;18.50;99.90;;;;;;5030476;28;20685;-38
2021/08/01 07:03:18;;;;;;;12.03;10.73;;;18.60;99.90;;;;;;5036552;28;20489;-38
2021/08/01 07:05:45;;;;;;;12.40;11.20;;;18.60;99.90;;;;;;5027610;28;20424;-39
2021/08/01 07:08:11;;;;;;;11.17;9.50;;;18.50;99.90;;;;;;5034950;28;20436;-38
2021/08/01 07:10:37;;;;;;;11.03;9.93;;;18.50;99.90;;;;;;5032758;28;20421;-38
2021/08/01 07:13:07;;;;;;;12.23;9.83;;;18.50;99.90;;;;;;5027219;28;20319;-39
2021/08/01 07:15:33;;;;;;;13.60;10.07;;;18.40;99.90;;;;;;5028498;28;20820;-38
2021/08/01 07:17:59;;;;;;;10.23;9.00;;;18.30;99.90;;;;;;5036643;28;20424;-39
2021/08/01 07:20:26;;;;;;;14.53;9.90;;;18.30;99.90;;;;;;5027192;28;20480;-39
2021/08/01 07:22:52;;;;;;;11.13;9.83;;;18.40;99.90;;;;;;5030601;28;20424;-39
2021/08/01 07:25:19;;;;;;;14.40;9.87;;;18.50;99.90;;;;;;5030643;28;20935;-39
2021/08/01 07:27:45;;;;;;;11.23;10.10;;;18.70;99.90;;;;;;5027332;28;20519;-39
2021/08/01 07:30:12;;;;;;;11.10;9.97;;;18.70;99.90;;;;;;5035730;28;20888;-38
2021/08/01 07:32:37;;;;;;;11.57;9.80;;;18.60;99.90;;;;;;5042954;28;20193;-38
2021/08/01 07:35:04;;;;;;;10.90;9.80;;;18.60;99.90;;;;;;5044952;28;21036;-41
2021/08/01 07:37:29;;;;;;;11.43;9.57;;;18.50;99.90;;;;;;5043773;28;20579;-40
2021/08/01 07:39:55;;;;;;;10.63;9.63;;;18.60;99.90;;;;;;5029553;28;20491;-39
2021/08/01 07:42:21;;;;;;;9.30;8.40;;;18.50;99.90;;;;;;5026978;28;20707;-39
2021/08/01 07:44:50;;;;;;;10.50;9.30;;;18.60;99.90;;;;;;5027926;28;20209;-39
2021/08/01 07:47:24;;;;;;;10.43;9.13;;;18.60;99.90;;;;;;5040840;28;20197;-39
2021/08/01 07:49:51;;;;;;;12.37;8.90;;;18.60;99.90;;;;;;5040983;28;20435;-39
2021/08/01 07:52:18;;;;;;;10.63;8.50;;;18.70;99.90;;;;;;5028216;28;20512;-38
2021/08/01 07:54:44;;;;;;;9.60;8.60;;;18.70;99.90;;;;;;5027792;28;20433;-38
2021/08/01 07:57:31;;;;;;;9.60;8.70;;;18.80;99.90;;;;;;5026520;28;20433;-39
2021/08/01 07:59:58;;;;;;;10.03;7.90;;;18.90;99.90;;;;;;5029888;28;20479;-38
2021/08/01 08:02:25;;;;;;;9.13;7.83;;;19.00;99.90;;;;;;5037860;28;20428;-39
2021/08/01 08:04:51;;;;;;;10.97;7.60;;;19.10;99.90;;;;;;5045094;28;20417;-38
2021/08/01 08:07:17;;;;;;;10.57;8.67;;;19.10;99.90;;;;;;5031974;28;20425;-40
2021/08/01 08:09:43;;;;;;;8.03;7.33;;;19.20;99.90;;;;;;5036328;28;20806;-38
2021/08/01 08:12:09;;;;;;;11.70;8.20;;;19.30;99.90;;;;;;5027033;28;20429;-41
2021/08/01 08:14:35;;;;;;;7.13;6.43;;;19.30;99.90;;;;;;5027467;28;20445;-38
2021/08/01 08:17:01;;;;;;;5.50;5.00;;;19.40;99.90;;;;;;5037078;28;20951;-40
2021/08/01 08:19:27;;;;;;;8.80;5.57;;;19.40;99.90;;;;;;5035341;28;20340;-39
2021/08/01 08:21:53;;;;;;;5.30;4.77;;;19.50;99.90;;;;;;5027954;28;20286;-38
2021/08/01 08:24:19;;;;;;;5.27;4.50;;;19.60;99.90;;;;;;5033306;28;20467;-38
2021/08/01 08:26:45;;;;;;;6.53;4.50;;;19.70;99.90;;;;;;5027284;28;20525;-40
2021/08/01 08:29:10;;;;;;;5.50;4.53;;;19.70;99.90;;;;;;5030234;28;20333;-39
2021/08/01 08:31:36;;;;;;;7.40;4.60;;;19.80;99.90;;;;;;5040980;28;20194;-38
2021/08/01 08:34:02;;;;;;;6.27;4.50;;;19.80;99.90;;;;;;5044050;28;20201;-38
2021/08/01 08:36:27;;;;;;;6.60;5.30;;;19.70;99.90;;;;;;5033712;28;20277;-38
2021/08/01 08:38:53;;;;;;;6.57;4.90;;;19.60;99.90;;;;;;5035087;28;20818;-38
2021/08/01 08:41:20;;;;;;;8.60;5.50;;;19.50;99.90;;;;;;5037690;28;20209;-38
2021/08/01 08:43:46;;;;;;;6.30;4.90;;;19.50;99.90;;;;;;5037060;28;20526;-38
2021/08/01 08:46:12;;;;;;;6.03;4.17;;;19.50;99.90;;;;;;5034720;28;20443;-38
2021/08/01 08:48:39;;;;;;;4.53;4.13;;;19.50;99.90;;;;;;5036663;28;20186;-38
2021/08/01 08:51:09;;;;;;;4.70;4.00;;;19.50;99.90;;;;;;5039406;28;20423;-37
2021/08/01 08:53:48;;;;;;;7.10;4.27;;;19.50;99.90;;;;;;5038124;28;20851;-40
2021/08/01 08:56:15;;;;;;;5.57;4.47;;;19.50;99.90;;;;;;5034497;28;20943;-38
2021/08/01 08:58:42;;;;;;;6.43;3.83;;;19.50;99.90;;;;;;5037152;28;20417;-38
2021/08/01 09:01:08;;;;;;;4.87;3.90;;;19.50;99.90;;;;;;5036018;28;20451;-38
2021/08/01 09:03:34;;;;;;;4.70;4.27;;;19.60;99.90;;;;;;5038687;28;20429;-38
2021/08/01 09:06:00;;;;;;;6.90;4.30;;;19.80;99.90;;;;;;5033810;28;20515;-41
2021/08/01 09:08:27;;;;;;;5.40;3.80;;;19.80;99.90;;;;;;5033803;28;20795;-39
2021/08/01 09:10:56;;;;;;;6.30;3.50;;;19.80;99.90;;;;;;5027674;28;20920;-37
2021/08/01 09:13:41;;;;;;;6.20;3.97;;;19.90;99.90;;;;;;5031120;28;20482;-38
2021/08/01 09:16:07;;;;;;;4.40;3.70;;;19.90;99.90;;;;;;5038703;28;20436;-37
2021/08/01 09:18:33;;;;;;;3.70;3.40;;;19.90;99.90;;;;;;5040001;28;20482;-38
2021/08/01 09:20:58;;;;;;;4.97;3.47;;;19.80;99.90;;;;;;5040195;28;20232;-38
2021/08/01 09:23:24;;;;;;;4.67;3.97;;;19.70;99.90;;;;;;5041837;28;20859;-39
2021/08/01 09:25:59;;;;;;;3.70;3.40;;;19.70;99.90;;;;;;5041042;28;20228;-38
2021/08/01 09:28:25;;;;;;;5.77;3.70;;;19.90;99.90;;;;;;5035529;28;20198;-38
2021/08/01 09:30:57;;;;;;;3.87;3.57;;;20.10;99.90;;;;;;5037971;28;20440;-38
2021/08/01 09:33:37;;;;;;;4.80;3.63;;;20.30;99.90;;;;;;5036973;28;20425;-38
2021/08/01 09:36:12;;;;;;;3.83;3.20;;;20.40;99.90;;;;;;5039068;28;20945;-40
2021/08/01 09:38:48;;;;;;;4.30;3.17;;;20.40;99.90;;;;;;5038164;28;20428;-37
2021/08/01 09:41:17;;;;;;;6.47;4.00;;;20.50;99.90;;;;;;5043968;28;20535;-38
2021/08/01 09:43:55;;;;;;;4.57;3.67;;;20.50;99.90;;;;;;5050945;28;20428;-38
2021/08/01 09:46:35;;;;;;;5.57;3.63;;;20.50;99.90;;;;;;5044689;28;20476;-39
2021/08/01 09:49:15;;;;;;;4.57;3.30;;;20.40;99.90;;;;;;5034668;28;20434;-38
2021/08/01 09:51:52;;;;;;;4.10;3.67;;;20.50;99.90;;;;;;5030621;28;20436;-41
2021/08/01 09:54:19;;;;;;;4.23;3.10;;;20.60;99.90;;;;;;5036763;28;20447;-43
2021/08/01 09:57:05;;;;;;;3.63;3.13;;;20.90;99.90;;;;;;5038651;28;20734;-42
2021/08/01 09:59:32;;;;;;;5.30;3.93;;;21.20;99.90;;;;;;5047404;28;20787;-39
2021/08/01 10:02:04;;;;;;;5.37;3.70;;;21.40;99.90;;;;;;5047166;28;20471;-38
2021/08/01 10:04:34;;;;;;;5.33;3.30;;;21.50;99.90;;;;;;5045522;28;20431;-38
2021/08/01 10:07:12;;;;;;;4.23;3.30;;;21.60;99.90;;;;;;5038789;28;20459;-42
2021/08/01 10:09:41;;;;;;;4.00;3.60;;;21.60;99.90;;;;;;5029159;28;20452;-39
2021/08/01 10:12:08;;;;;;;5.13;4.30;;;21.60;99.90;;;;;;5030080;28;20968;-39
2021/08/01 10:14:35;;;;;;;3.93;3.63;;;21.50;99.90;;;;;;5046139;28;20887;-38
2021/08/01 10:17:02;;;;;;;6.07;4.10;;;21.40;99.90;;;;;;5047161;28;20439;-40
2021/08/01 10:19:28;;;;;;;4.83;4.10;;;21.30;99.90;;;;;;5040912;28;20464;-38
2021/08/01 10:22:00;;;;;;;5.60;4.80;;;21.20;99.90;;;;;;5038074;28;20429;-38
2021/08/01 10:24:41;;;;;;;5.80;4.10;;;21.30;99.90;;;;;;5030369;28;20499;-39
2021/08/01 10:27:08;;;;;;;5.43;4.10;;;21.30;99.90;;;;;;5031129;28;20445;-38
2021/08/01 10:29:45;;;;;;;4.37;3.80;;;21.40;99.90;;;;;;5034016;28;20472;-39
2021/08/01 10:32:12;;;;;;;5.07;4.67;;;21.40;99.90;;;;;;5038592;28;20443;-39
2021/08/01 10:34:47;;;;;;;5.97;4.33;;;21.50;99.90;;;;;;5038220;28;20433;-40
2021/08/01 10:37:24;;;;;;;4.40;3.60;;;21.50;99.90;;;;;;5034691;28;20447;-38
2021/08/01 10:39:50;;;;;;;6.60;4.50;;;21.70;99.90;;;;;;5047988;28;20503;-41
2021/08/01 10:42:17;;;;;;;4.77;4.30;;;21.80;99.90;;;;;;5029466;28;20465;-38
2021/08/01 10:44:43;;;;;;;7.37;4.40;;;21.80;99.90;;;;;;5028519;28;20425;-38
2021/08/01 10:47:11;;;;;;;6.13;4.20;;;21.70;99.90;;;;;;5033044;28;20470;-40
2021/08/01 10:49:42;;;;;;;4.60;4.20;;;21.80;99.90;;;;;;5037187;28;20428;-39
2021/08/01 10:52:12;;;;;;;4.77;3.80;;;21.80;99.90;;;;;;5029076;28;20429;-39
2021/08/01 10:55:01;;;;;;;4.57;3.70;;;21.70;99.90;;;;;;5033665;28;20965;-38
2021/08/01 10:57:28;;;;;;;4.70;3.87;;;21.60;99.90;;;;;;5028572;28;20429;-39
2021/08/01 10:59:56;;;;;;;3.60;3.30;;;21.60;99.90;;;;;;5028610;28;20472;-38
2021/08/01 11:02:32;;;;;;;7.27;3.97;;;21.70;99.90;;;;;;5037984;28;20517;-42
2021/08/01 11:05:18;;;;;;;3.93;3.27;;;21.80;99.90;;;;;;5044255;28;20585;-38
2021/08/01 11:07:43;;;;;;;6.43;3.80;;;22.00;99.90;;;;;;5030232;28;20444;-41
2021/08/01 11:10:15;;;;;;;6.77;3.83;;;22.10;99.90;;;;;;5029349;28;20445;-39
2021/08/01 11:12:42;;;;;;;4.50;3.30;;;22.20;99.90;;;;;;5028589;28;20183;-38
2021/08/01 11:15:10;;;;;;;4.90;3.53;;;22.30;99.90;;;;;;5028398;28;20448;-38
2021/08/01 11:17:49;;;;;;;3.90;2.90;;;22.30;99.90;;;;;;5035754;28;20445;-41
2021/08/01 11:20:23;;;;;;;6.13;3.63;;;22.40;99.90;;;;;;5041736;28;20452;-38
2021/08/01 11:22:53;;;;;;;3.40;3.10;;;22.30;99.90;;;;;;5027741;28;20802;-40
2021/08/01 11:25:19;;;;;;;5.30;3.80;;;22.30;99.90;;;;;;5037292;28;20497;-38
2021/08/01 11:28:23;;;;;;;3.53;3.23;;;22.30;99.90;;;;;;5025333;28;20445;-38
2021/08/01 11:30:54;;;;;;;4.90;3.10;;;22.20;99.90;;;;;;5028459;28;20429;-38
2021/08/01 11:33:33;;;;;;;5.37;3.53;;;22.30;99.90;;;;;;5039821;28;20428;-39
2021/08/01 11:36:15;;;;;;;3.60;3.07;;;22.30;99.90;;;;;;5037845;28;20875;-38
2021/08/01 11:38:54;;;;;;;6.00;3.60;;;22.30;99.90;;;;;;5036494;28;20424;-38
2021/08/01 11:41:43;;;;;;;5.20;3.57;;;22.30;99.90;;;;;;5038398;28;20424;-38
2021/08/01 11:44:21;;;;;;;5.00;3.40;;;22.20;99.90;;;;;;5036548;28;20448;-44
2021/08/01 11:46:50;;;;;;;4.57;3.00;;;22.00;99.90;;;;;;5026989;28;20433;-41
2021/08/01 11:49:24;;;;;;;3.20;2.90;;;21.90;99.90;;;;;;5035104;28;20527;-39
2021/08/01 11:51:54;;;;;;;4.03;3.30;;;21.80;99.90;;;;;;5036361;28;20433;-39
2021/08/01 11:54:29;;;;;;;3.53;3.23;;;21.80;99.90;;;;;;5033439;28;20432;-40
2021/08/01 11:56:58;;;;;;;2.93;2.73;;;21.70;99.90;;;;;;5037458;28;21021;-39
2021/08/01 11:59:25;;;;;;;4.60;3.37;;;21.60;99.90;;;;;;5043108;28;20456;-42
2021/08/01 12:01:53;;;;;;;3.20;3.00;;;21.50;99.90;;;;;;5037816;28;20437;-38
2021/08/01 12:04:19;;;;;;;3.60;3.30;;;21.40;99.90;;;;;;5031505;28;20421;-39
2021/08/01 12:06:45;;;;;;;5.00;3.90;;;21.40;99.90;;;;;;5029574;28;21084;-39
2021/08/01 12:09:25;;;;;;;4.50;3.40;;;21.50;99.90;;;;;;5027969;28;20453;-38
2021/08/01 12:11:58;;;;;;;5.47;3.97;;;21.60;99.90;;;;;;5035612;28;20259;-40
2021/08/01 12:14:30;;;;;;;4.10;3.70;;;21.50;99.90;;;;;;5027110;28;20508;-39
2021/08/01 12:17:10;;;;;;;4.70;3.70;;;21.40;99.90;;;;;;5027638;28;20514;-39
2021/08/01 12:19:46;;;;;;;5.23;3.67;;;21.30;99.90;;;;;;5037838;28;20544;-38
2021/08/01 12:22:20;;;;;;;3.83;3.53;;;21.40;99.90;;;;;;5028635;28;20429;-39
2021/08/01 12:24:56;;;;;;;4.50;3.17;;;21.40;99.90;;;;;;5031744;28;20428;-38
2021/08/01 12:27:28;;;;;;;4.53;3.93;;;21.50;99.90;;;;;;5026932;28;20432;-38
2021/08/01 12:29:56;;;;;;;4.67;4.27;;;21.80;99.90;;;;;;5035602;28;20447;-39
2021/08/01 12:32:23;;;;;;;4.17;3.80;;;21.90;99.90;;;;;;5027254;28;20445;-39
2021/08/01 12:34:51;;;;;;;4.13;3.60;;;22.00;99.90;;;;;;5041176;28;20431;-39
2021/08/01 12:37:17;;;;;;;4.50;4.10;;;22.10;99.90;;;;;;5036920;28;20436;-39
2021/08/01 12:39:47;;;;;;;4.50;4.20;;;22.20;99.90;;;;;;5029516;28;20460;-39
2021/08/01 12:42:13;;;;;;;7.23;6.63;;;22.30;99.90;;;;;;5026686;28;20420;-40
2021/08/01 12:44:52;;;;;;;7.53;6.80;;;22.30;99.90;;;;;;5026497;28;20425;-41
2021/08/01 12:47:18;;;;;;;5.50;5.00;;;22.30;99.90;;;;;;5029877;28;20506;-39